Time;durP1;ratioP1;P1;durP2;ratioP2;P2;SDS_P1;SDS_P2;PMS_P1;PMS_P2;Temp;Humidity;BMP_temperature;BMP_pressure;BME280_temperature;BME280_humidity;BME280_pressure;Samples;Min_cycle;Max_cycle;Signal;HPM_P1;HPM_P2
2022/11/25 00:01:28;;;;;;;8.38;1.85;;;9.90;99.90;;;;;;4995699;28;20193;-73
2022/11/25 00:03:56;;;;;;;4.78;2.15;;;9.90;99.90;;;;;;5012964;28;20213;-73
2022/11/25 00:06:33;;;;;;;10.02;2.03;;;9.80;99.90;;;;;;4995595;28;20285;-73
2022/11/25 00:09:19;;;;;;;7.38;2.30;;;9.90;99.90;;;;;;5012987;28;20202;-73
2022/11/25 00:11:45;;;;;;;8.20;2.10;;;9.80;99.90;;;;;;4995405;28;20174;-73
2022/11/25 00:14:13;;;;;;;7.37;2.23;;;9.80;99.90;;;;;;5012479;28;20254;-73
2022/11/25 00:16:39;;;;;;;9.80;2.70;;;9.80;99.90;;;;;;4979303;28;20232;-73
2022/11/25 00:19:05;;;;;;;6.87;2.60;;;9.80;99.90;;;;;;5012916;28;20178;-73
2022/11/25 00:21:33;;;;;;;6.45;1.95;;;9.80;99.90;;;;;;4995360;28;20167;-73
2022/11/25 00:24:01;;;;;;;11.48;3.38;;;9.80;99.90;;;;;;5012460;28;20166;-73
2022/11/25 00:26:31;;;;;;;5.10;1.90;;;9.80;99.90;;;;;;5012763;28;20228;-73
2022/11/25 00:28:58;;;;;;;5.55;2.22;;;9.70;99.90;;;;;;4995097;28;20240;-73
2022/11/25 00:32:24;;;;;;;6.05;2.10;;;9.70;99.90;;;;;;4997433;28;20226;-74
2022/11/25 00:34:51;;;;;;;10.70;2.83;;;9.60;99.90;;;;;;4916410;29;20205;-73
2022/11/25 00:37:17;;;;;;;7.90;2.40;;;9.60;99.90;;;;;;4932600;29;20698;-74
2022/11/25 00:39:42;;;;;;;9.30;2.47;;;9.60;99.90;;;;;;4971527;28;20565;-73
2022/11/25 00:44:53;;;;;;;14.15;2.63;;;9.50;99.90;;;;;;5012174;28;20619;-74
2022/11/25 00:47:20;;;;;;;8.40;3.47;;;9.50;99.90;;;;;;5012435;28;20197;-73
2022/11/25 00:49:48;;;;;;;9.73;2.53;;;9.50;99.90;;;;;;4994291;28;20174;-74
2022/11/25 00:52:17;;;;;;;7.70;2.20;;;9.50;99.90;;;;;;4994622;28;20201;-73
2022/11/25 00:54:46;;;;;;;8.25;2.90;;;9.50;99.90;;;;;;5012365;28;20294;-73
2022/11/25 00:57:13;;;;;;;10.45;2.40;;;9.50;99.90;;;;;;5012781;28;20681;-73
2022/11/25 00:59:39;;;;;;;7.32;3.15;;;9.50;99.90;;;;;;4994726;28;20177;-73
2022/11/25 01:02:05;;;;;;;4.07;1.90;;;9.50;99.90;;;;;;4994894;28;20171;-73
2022/11/25 01:04:31;;;;;;;9.33;1.90;;;9.50;99.90;;;;;;5012737;28;20584;-73
2022/11/25 01:06:58;;;;;;;5.60;2.40;;;9.50;99.90;;;;;;5005821;28;20667;-73
2022/11/25 01:09:25;;;;;;;8.93;2.08;;;9.50;99.90;;;;;;5014432;28;20568;-73
2022/11/25 01:11:52;;;;;;;7.22;2.95;;;9.60;99.90;;;;;;5013756;28;20269;-73
2022/11/25 01:14:22;;;;;;;10.63;3.67;;;9.60;99.90;;;;;;5031395;28;20254;-73
2022/11/25 01:16:48;;;;;;;6.75;3.22;;;9.70;99.90;;;;;;5013826;28;20656;-73
2022/11/25 01:19:15;;;;;;;5.35;2.47;;;9.80;99.90;;;;;;5013967;28;21003;-73
2022/11/25 01:21:41;;;;;;;6.43;2.17;;;9.80;99.90;;;;;;5013656;28;20283;-73
2022/11/25 01:24:13;;;;;;;7.35;2.78;;;9.80;99.90;;;;;;5031403;28;20177;-73
2022/11/25 01:26:39;;;;;;;7.80;2.10;;;9.80;99.90;;;;;;5031271;28;20166;-73
2022/11/25 01:29:10;;;;;;;15.93;3.40;;;9.90;99.90;;;;;;5031424;28;20400;-73
2022/11/25 01:31:36;;;;;;;6.65;2.55;;;9.80;99.90;;;;;;5031258;28;20543;-73
2022/11/25 01:34:05;;;;;;;6.07;2.40;;;9.80;99.90;;;;;;5031260;28;20170;-73
2022/11/25 01:36:31;;;;;;;9.20;3.38;;;9.90;99.90;;;;;;4997165;28;20212;-73
2022/11/25 01:38:59;;;;;;;10.90;3.28;;;9.90;99.90;;;;;;5013899;28;20181;-72
2022/11/25 01:41:27;;;;;;;6.22;2.42;;;9.90;99.90;;;;;;5031247;28;20200;-73
2022/11/25 01:44:07;;;;;;;6.50;2.80;;;9.90;99.90;;;;;;5014043;28;20166;-73
2022/11/25 01:46:45;;;;;;;6.90;2.28;;;9.80;99.90;;;;;;5033532;28;20197;-73
2022/11/25 01:49:16;;;;;;;10.48;2.90;;;9.90;99.90;;;;;;5018495;28;20627;-73
2022/11/25 01:51:42;;;;;;;6.13;2.45;;;9.90;99.90;;;;;;5024634;28;20166;-73
2022/11/25 01:54:12;;;;;;;8.20;2.50;;;9.90;99.90;;;;;;5043010;28;20177;-73
2022/11/25 01:56:48;;;;;;;7.75;2.35;;;9.90;99.90;;;;;;5040510;28;20518;-73
2022/11/25 01:59:14;;;;;;;4.80;2.33;;;9.90;99.90;;;;;;5020439;28;20174;-73
2022/11/25 02:01:40;;;;;;;10.18;2.25;;;9.90;99.90;;;;;;5025578;28;20185;-73
2022/11/25 02:04:08;;;;;;;8.93;2.97;;;9.90;99.90;;;;;;5004910;28;20170;-74
2022/11/25 02:06:47;;;;;;;8.05;1.92;;;9.90;99.90;;;;;;5014532;28;20690;-73
2022/11/25 02:09:14;;;;;;;9.25;2.78;;;9.90;99.90;;;;;;5013782;28;20208;-73
2022/11/25 02:11:42;;;;;;;7.68;2.17;;;9.90;99.90;;;;;;4997396;28;20265;-73
2022/11/25 02:14:09;;;;;;;6.00;2.72;;;9.90;99.90;;;;;;5031323;28;20169;-73
2022/11/25 02:16:35;;;;;;;7.88;2.85;;;9.90;99.90;;;;;;5013342;28;20193;-74
2022/11/25 02:19:02;;;;;;;6.43;2.23;;;9.90;99.90;;;;;;5030902;28;20165;-73
2022/11/25 02:21:49;;;;;;;12.50;3.30;;;9.90;99.90;;;;;;4997029;28;20596;-74
2022/11/25 02:24:30;;;;;;;5.78;2.00;;;9.90;99.90;;;;;;5012813;28;20576;-74
2022/11/25 02:26:57;;;;;;;12.27;2.38;;;10.00;99.90;;;;;;4997007;28;20174;-73
2022/11/25 02:29:23;;;;;;;8.45;1.85;;;10.00;99.90;;;;;;5021718;28;20189;-73
2022/11/25 02:31:50;;;;;;;12.45;2.05;;;10.00;99.90;;;;;;5012636;28;20650;-73
2022/11/25 02:34:16;;;;;;;10.48;3.22;;;10.10;99.90;;;;;;5012171;28;20638;-73
2022/11/25 02:36:42;;;;;;;9.17;2.70;;;10.00;99.90;;;;;;5012609;28;20162;-73
2022/11/25 02:39:08;;;;;;;8.80;2.90;;;10.00;99.90;;;;;;5012270;28;20626;-74
2022/11/25 02:41:39;;;;;;;6.30;2.50;;;10.00;99.90;;;;;;5012379;28;20693;-74
2022/11/25 02:44:05;;;;;;;9.02;2.70;;;10.10;99.90;;;;;;5029574;28;20573;-73
2022/11/25 02:46:32;;;;;;;5.80;2.45;;;10.10;99.90;;;;;;5012219;28;20205;-73
2022/11/25 02:49:02;;;;;;;7.10;2.70;;;10.10;99.90;;;;;;5012293;28;20641;-74
2022/11/25 02:51:30;;;;;;;6.40;2.55;;;10.20;99.90;;;;;;5012147;28;20200;-73
2022/11/25 02:53:58;;;;;;;10.55;2.40;;;10.20;99.90;;;;;;5012078;28;20247;-74
2022/11/25 02:56:29;;;;;;;6.57;2.63;;;10.20;99.90;;;;;;5011745;28;20217;-74
2022/11/25 02:58:55;;;;;;;7.10;2.88;;;10.20;99.90;;;;;;5012175;28;20178;-73
2022/11/25 03:01:24;;;;;;;8.05;2.63;;;10.20;99.90;;;;;;5011733;28;20249;-73
2022/11/25 03:03:49;;;;;;;6.68;1.80;;;10.20;99.90;;;;;;5011896;28;20170;-74
2022/11/25 03:06:15;;;;;;;8.23;2.20;;;10.20;99.90;;;;;;5029495;28;20193;-74
2022/11/25 03:08:41;;;;;;;7.43;2.60;;;10.30;99.90;;;;;;5029656;28;20276;-74
2022/11/25 03:11:10;;;;;;;7.15;2.38;;;10.30;99.90;;;;;;5011562;28;20174;-74
2022/11/25 03:13:36;;;;;;;6.07;2.55;;;10.40;99.90;;;;;;5011550;28;20174;-74
2022/11/25 03:16:03;;;;;;;10.70;2.67;;;10.40;99.90;;;;;;5029173;28;20189;-73
2022/11/25 03:18:28;;;;;;;5.72;2.50;;;10.40;99.90;;;;;;5029609;28;20189;-73
2022/11/25 03:20:55;;;;;;;6.50;2.40;;;10.40;99.90;;;;;;5029341;28;20864;-74
2022/11/25 03:23:23;;;;;;;9.32;2.15;;;10.40;99.90;;;;;;5011504;28;20212;-74
2022/11/25 03:25:52;;;;;;;6.35;2.33;;;10.50;99.90;;;;;;5029182;28;20828;-74
2022/11/25 03:28:18;;;;;;;7.93;2.15;;;10.60;99.90;;;;;;5029295;28;20232;-74
2022/11/25 03:30:45;;;;;;;10.02;2.72;;;10.60;99.90;;;;;;5011672;28;20166;-74
2022/11/25 03:33:11;;;;;;;6.32;2.70;;;10.70;99.90;;;;;;4994974;28;20162;-74
2022/11/25 03:35:37;;;;;;;8.00;2.20;;;10.70;99.90;;;;;;5011544;28;20208;-73
2022/11/25 03:38:03;;;;;;;6.00;2.38;;;10.80;99.90;;;;;;5011358;28;20634;-73
2022/11/25 03:40:32;;;;;;;16.92;3.38;;;10.80;99.90;;;;;;5011682;28;20205;-74
2022/11/25 03:42:58;;;;;;;6.17;1.83;;;10.80;99.90;;;;;;5010998;28;20624;-74
2022/11/25 03:45:24;;;;;;;8.03;1.90;;;10.90;99.90;;;;;;4995029;28;20664;-74
2022/11/25 03:47:49;;;;;;;9.83;2.00;;;10.90;99.90;;;;;;5029025;28;20224;-74
2022/11/25 03:50:16;;;;;;;4.47;1.63;;;11.00;99.90;;;;;;5011547;28;20596;-74
2022/11/25 03:52:43;;;;;;;8.27;2.00;;;11.00;99.90;;;;;;5011086;28;20205;-74
2022/11/25 03:55:11;;;;;;;9.45;3.10;;;11.00;99.90;;;;;;5011573;28;20674;-74
2022/11/25 03:57:39;;;;;;;5.72;2.30;;;11.00;99.90;;;;;;5028867;28;20201;-74
2022/11/25 04:00:07;;;;;;;7.43;2.20;;;11.00;99.90;;;;;;5011605;28;20260;-74
2022/11/25 04:02:44;;;;;;;6.68;1.90;;;11.00;99.90;;;;;;5028594;28;20158;-73
2022/11/25 04:05:10;;;;;;;6.97;2.13;;;11.10;99.90;;;;;;5011387;28;20685;-74
2022/11/25 04:07:37;;;;;;;8.20;2.58;;;11.10;99.90;;;;;;5011106;28;20194;-73
2022/11/25 04:10:04;;;;;;;6.88;2.70;;;11.10;99.90;;;;;;5011494;28;20170;-74
2022/11/25 04:12:47;;;;;;;8.40;2.15;;;11.10;99.90;;;;;;5010857;28;20267;-73
2022/11/25 04:15:18;;;;;;;9.38;2.20;;;11.10;99.90;;;;;;5011296;28;20181;-73
2022/11/25 04:17:48;;;;;;;6.60;2.15;;;11.10;99.90;;;;;;5011024;28;20177;-73
2022/11/25 04:20:14;;;;;;;5.43;2.20;;;11.10;99.90;;;;;;5011355;28;20173;-73
2022/11/25 04:22:44;;;;;;;6.50;2.10;;;11.20;99.90;;;;;;5010907;28;20914;-74
2022/11/25 04:25:10;;;;;;;6.40;1.95;;;11.20;99.90;;;;;;4996162;28;20576;-73
2022/11/25 04:27:37;;;;;;;7.70;2.42;;;11.20;99.90;;;;;;5014827;28;20198;-73
2022/11/25 04:30:05;;;;;;;8.05;2.05;;;11.20;99.90;;;;;;4998366;28;20174;-74
2022/11/25 04:32:35;;;;;;;8.95;2.53;;;11.20;99.90;;;;;;5014543;28;20166;-73
2022/11/25 04:35:01;;;;;;;7.18;2.67;;;11.20;99.90;;;;;;5014546;28;20215;-74
2022/11/25 04:37:28;;;;;;;8.35;2.20;;;11.20;99.90;;;;;;5014748;28;20178;-74
2022/11/25 04:39:54;;;;;;;6.40;2.37;;;11.20;99.90;;;;;;4997992;28;20236;-74
2022/11/25 04:42:33;;;;;;;6.63;2.07;;;11.20;99.90;;;;;;5014441;28;20667;-74
2022/11/25 04:45:03;;;;;;;9.40;2.67;;;11.10;99.90;;;;;;5032079;28;20752;-74
2022/11/25 04:47:29;;;;;;;8.90;2.50;;;11.10;99.90;;;;;;5032280;28;20209;-74
2022/11/25 04:49:55;;;;;;;6.47;2.37;;;11.00;99.90;;;;;;5032070;28;20161;-74
2022/11/25 04:52:22;;;;;;;5.97;1.98;;;10.90;99.90;;;;;;5014183;28;20568;-74
2022/11/25 04:54:47;;;;;;;6.87;1.97;;;10.90;99.90;;;;;;5032025;28;20189;-74
2022/11/25 04:57:14;;;;;;;11.13;2.90;;;10.90;99.90;;;;;;5014706;28;20564;-73
2022/11/25 04:59:43;;;;;;;8.68;2.75;;;10.80;99.90;;;;;;5014310;28;20162;-74
2022/11/25 05:02:16;;;;;;;8.23;1.88;;;10.80;99.90;;;;;;5013688;28;20646;-74
2022/11/25 05:04:55;;;;;;;5.80;2.33;;;10.80;99.90;;;;;;5014082;28;20220;-74
2022/11/25 05:07:23;;;;;;;7.20;2.45;;;10.80;99.90;;;;;;5014148;28;20166;-74
2022/11/25 05:09:50;;;;;;;9.73;2.30;;;10.70;99.90;;;;;;5014453;28;20170;-73
2022/11/25 05:12:27;;;;;;;8.00;2.00;;;10.70;99.90;;;;;;4998686;28;20187;-73
2022/11/25 05:14:54;;;;;;;10.10;1.60;;;10.70;99.90;;;;;;5014473;28;20231;-73
2022/11/25 05:17:24;;;;;;;6.03;1.95;;;10.70;99.90;;;;;;5039387;22;20704;-74
2022/11/25 05:19:50;;;;;;;11.10;2.80;;;10.70;99.90;;;;;;5067260;28;20239;-74
2022/11/25 05:22:20;;;;;;;8.07;2.20;;;10.70;99.90;;;;;;5050147;28;20157;-75
2022/11/25 05:24:46;;;;;;;10.73;3.17;;;10.60;99.90;;;;;;5033812;28;20169;-74
2022/11/25 05:27:13;;;;;;;8.27;2.03;;;10.60;99.90;;;;;;5052633;28;20193;-74
2022/11/25 05:29:38;;;;;;;13.90;3.95;;;10.60;99.90;;;;;;5033761;28;20173;-74
2022/11/25 05:32:06;;;;;;;6.13;1.90;;;10.50;99.90;;;;;;5049946;28;20169;-74
2022/11/25 05:34:32;;;;;;;10.65;2.75;;;10.50;99.90;;;;;;5050356;28;20315;-75
2022/11/25 05:36:58;;;;;;;6.50;2.03;;;10.40;99.90;;;;;;5048694;28;20268;-74
2022/11/25 05:39:25;;;;;;;9.10;2.20;;;10.40;99.90;;;;;;5033626;28;20583;-74
2022/11/25 05:42:19;;;;;;;8.70;2.80;;;10.30;99.90;;;;;;4996703;28;20892;-74
2022/11/25 05:44:46;;;;;;;8.40;2.25;;;10.30;99.90;;;;;;5033565;28;20184;-75
2022/11/25 05:47:12;;;;;;;5.20;2.10;;;10.30;99.90;;;;;;5049730;28;20185;-75
2022/11/25 05:49:39;;;;;;;6.30;2.30;;;10.20;99.90;;;;;;5050013;28;20165;-75
2022/11/25 05:52:05;;;;;;;10.70;2.73;;;10.20;99.90;;;;;;5049158;28;20177;-74
2022/11/25 05:54:36;;;;;;;7.25;3.25;;;10.20;99.90;;;;;;5034173;28;20205;-74
2022/11/25 05:57:02;;;;;;;9.77;2.23;;;10.20;99.90;;;;;;5033032;28;20546;-75
2022/11/25 05:59:27;;;;;;;5.77;2.17;;;10.20;99.90;;;;;;5051451;28;20168;-75
2022/11/25 06:02:07;;;;;;;5.07;2.00;;;10.10;99.90;;;;;;5034984;28;20168;-76
2022/11/25 06:04:33;;;;;;;9.50;2.23;;;10.10;99.90;;;;;;5027945;28;20649;-76
2022/11/25 06:06:59;;;;;;;8.37;1.93;;;10.10;99.90;;;;;;5029896;28;21414;-76
2022/11/25 06:09:25;;;;;;;5.70;2.30;;;10.20;99.90;;;;;;5012976;28;20201;-75
2022/11/25 06:11:51;;;;;;;5.67;1.73;;;10.20;99.90;;;;;;5029761;28;20528;-75
2022/11/25 06:14:17;;;;;;;8.13;2.53;;;10.20;99.90;;;;;;5029489;28;20571;-75
2022/11/25 06:16:44;;;;;;;11.73;2.60;;;10.20;99.90;;;;;;5029625;28;20180;-75
2022/11/25 06:19:21;;;;;;;9.40;2.33;;;10.20;99.90;;;;;;5014788;28;20208;-75
2022/11/25 06:21:47;;;;;;;4.67;2.30;;;10.10;99.90;;;;;;5030539;28;20170;-75
2022/11/25 06:24:14;;;;;;;6.05;2.17;;;10.20;99.90;;;;;;5028926;28;20509;-75
2022/11/25 06:26:42;;;;;;;8.02;2.45;;;10.20;99.90;;;;;;5029291;28;20248;-75
2022/11/25 06:29:09;;;;;;;5.75;2.92;;;10.10;99.90;;;;;;5029132;28;20293;-75
2022/11/25 06:31:35;;;;;;;6.00;2.20;;;10.10;99.90;;;;;;5029322;28;20182;-75
2022/11/25 06:34:19;;;;;;;6.22;2.63;;;10.20;99.90;;;;;;5029963;28;20568;-76
2022/11/25 06:36:47;;;;;;;8.27;2.85;;;10.20;99.90;;;;;;5029179;28;20264;-75
2022/11/25 06:39:13;;;;;;;8.02;2.45;;;10.20;99.90;;;;;;5030284;28;20173;-75
2022/11/25 06:41:38;;;;;;;7.37;2.80;;;10.10;99.90;;;;;;5032939;28;20565;-75
2022/11/25 06:44:04;;;;;;;9.13;2.97;;;10.20;99.90;;;;;;5028851;28;20196;-74
2022/11/25 06:46:30;;;;;;;8.77;2.93;;;10.10;99.90;;;;;;5030401;28;20168;-75
2022/11/25 06:48:59;;;;;;;9.33;2.80;;;10.10;99.90;;;;;;5029437;28;20233;-74
2022/11/25 06:51:25;;;;;;;6.72;3.08;;;10.10;99.90;;;;;;5030121;28;20173;-74
2022/11/25 06:53:51;;;;;;;6.25;2.38;;;10.10;99.90;;;;;;5030233;28;20220;-74
2022/11/25 06:56:21;;;;;;;12.85;4.40;;;10.10;99.90;;;;;;5028520;28;20220;-76
2022/11/25 06:58:48;;;;;;;7.45;2.78;;;10.10;99.90;;;;;;5012702;28;20189;-75
2022/11/25 07:01:19;;;;;;;7.25;3.10;;;10.20;99.90;;;;;;5029903;28;20169;-75
2022/11/25 07:03:47;;;;;;;12.38;4.45;;;10.20;99.90;;;;;;5029860;28;20611;-75
2022/11/25 07:06:18;;;;;;;5.55;2.40;;;10.20;99.90;;;;;;5029734;28;20205;-76
2022/11/25 07:08:44;;;;;;;10.00;3.28;;;10.20;99.90;;;;;;5029910;28;20197;-75
2022/11/25 07:11:34;;;;;;;9.00;2.67;;;10.20;99.90;;;;;;5029557;28;20157;-75
2022/11/25 07:14:03;;;;;;;7.88;3.35;;;10.20;99.90;;;;;;5028469;28;20170;-75
2022/11/25 07:16:29;;;;;;;5.93;2.55;;;10.20;99.90;;;;;;5030080;28;20174;-74
2022/11/25 07:18:57;;;;;;;6.60;3.78;;;10.30;99.90;;;;;;5032982;28;20208;-75
2022/11/25 07:21:24;;;;;;;7.47;2.92;;;10.20;99.90;;;;;;5030150;28;20219;-75
2022/11/25 07:23:51;;;;;;;7.85;3.72;;;10.20;99.90;;;;;;5032391;28;20260;-77
2022/11/25 07:26:20;;;;;;;8.70;2.60;;;10.20;99.90;;;;;;5041852;28;20220;-76
2022/11/25 07:28:47;;;;;;;7.00;2.72;;;10.20;99.90;;;;;;5022443;28;20228;-75
2022/11/25 07:31:26;;;;;;;6.32;3.60;;;10.20;99.90;;;;;;5029517;28;20162;-75
2022/11/25 07:33:53;;;;;;;9.02;4.05;;;10.20;99.90;;;;;;5036124;28;20173;-76
2022/11/25 07:36:19;;;;;;;7.43;2.83;;;10.10;99.90;;;;;;5031217;28;20212;-75
2022/11/25 07:38:45;;;;;;;5.03;2.80;;;10.10;99.90;;;;;;5029774;28;20665;-75
2022/11/25 07:41:16;;;;;;;9.70;3.30;;;10.10;99.90;;;;;;5031318;28;20568;-76
2022/11/25 07:43:47;;;;;;;9.55;3.22;;;10.00;99.90;;;;;;5031193;28;20625;-76
2022/11/25 07:46:26;;;;;;;10.30;3.67;;;10.00;99.90;;;;;;5030095;28;20724;-75
2022/11/25 07:48:55;;;;;;;8.77;3.20;;;10.00;99.90;;;;;;5011910;28;20212;-75
2022/11/25 07:51:20;;;;;;;11.88;3.08;;;10.00;99.90;;;;;;5028627;28;20162;-76
2022/11/25 07:53:48;;;;;;;6.80;2.90;;;10.10;99.90;;;;;;5028641;28;20165;-75
2022/11/25 07:56:15;;;;;;;13.55;3.60;;;10.10;99.90;;;;;;5034784;28;20168;-76
2022/11/25 07:58:41;;;;;;;11.90;3.90;;;10.10;99.90;;;;;;5030736;28;20903;-76
2022/11/25 08:01:10;;;;;;;8.57;3.30;;;10.10;99.90;;;;;;5031952;28;20495;-77
2022/11/25 08:03:37;;;;;;;9.80;3.63;;;10.10;99.90;;;;;;5032254;28;20162;-75
2022/11/25 08:06:05;;;;;;;6.85;3.20;;;10.10;99.90;;;;;;5033672;28;20189;-75
2022/11/25 08:08:31;;;;;;;5.63;3.15;;;10.10;99.90;;;;;;5015575;28;20591;-75
2022/11/25 08:10:57;;;;;;;6.30;2.85;;;10.10;99.90;;;;;;5033791;28;20165;-76
2022/11/25 08:13:23;;;;;;;7.17;3.90;;;10.10;99.90;;;;;;5016115;28;20532;-76
2022/11/25 08:15:49;;;;;;;10.20;2.70;;;10.20;99.90;;;;;;5032992;28;20932;-75
2022/11/25 08:18:15;;;;;;;8.43;3.50;;;10.20;99.90;;;;;;4998879;28;20205;-75
2022/11/25 08:20:41;;;;;;;7.03;3.40;;;10.20;99.90;;;;;;5033992;28;20518;-75
2022/11/25 08:23:07;;;;;;;5.73;2.73;;;10.20;99.90;;;;;;5015964;28;20205;-75
2022/11/25 08:25:37;;;;;;;5.73;2.57;;;10.30;99.90;;;;;;5032190;28;21009;-75
2022/11/25 08:28:03;;;;;;;4.60;2.30;;;10.40;99.90;;;;;;5031902;28;20636;-75
2022/11/25 08:30:29;;;;;;;4.30;2.27;;;10.50;99.90;;;;;;5032016;28;20172;-74
2022/11/25 08:32:56;;;;;;;6.75;2.70;;;10.50;99.90;;;;;;5036955;28;20173;-75
2022/11/25 08:35:22;;;;;;;5.95;2.20;;;10.60;99.90;;;;;;5033022;28;20177;-75
2022/11/25 08:37:48;;;;;;;5.23;2.30;;;10.70;99.90;;;;;;5032245;28;20215;-76
2022/11/25 08:40:14;;;;;;;6.93;2.27;;;10.70;99.90;;;;;;5033125;28;21119;-76
2022/11/25 08:42:40;;;;;;;5.35;2.60;;;10.80;99.90;;;;;;5033031;28;20387;-76
2022/11/25 08:45:07;;;;;;;8.83;3.10;;;10.90;99.90;;;;;;5032183;28;21744;-76
2022/11/25 08:47:33;;;;;;;5.50;3.47;;;10.90;99.90;;;;;;5032611;28;20395;-76
2022/11/25 08:49:59;;;;;;;4.43;2.37;;;11.00;99.90;;;;;;5014721;28;20240;-76
2022/11/25 08:52:27;;;;;;;6.90;2.30;;;11.00;99.90;;;;;;5031228;28;20170;-76
2022/11/25 08:54:53;;;;;;;5.88;2.83;;;11.10;99.90;;;;;;5031036;28;20532;-75
2022/11/25 08:57:19;;;;;;;6.73;2.90;;;11.20;99.90;;;;;;5032425;28;20285;-75
2022/11/25 08:59:45;;;;;;;7.03;2.87;;;11.20;99.90;;;;;;5031055;28;20162;-75
2022/11/25 09:02:14;;;;;;;6.95;2.90;;;11.30;99.90;;;;;;5032379;28;20239;-74
2022/11/25 09:04:40;;;;;;;5.50;3.15;;;11.30;99.90;;;;;;5032254;28;20628;-76
2022/11/25 09:07:05;;;;;;;3.43;1.93;;;11.40;99.90;;;;;;5014987;28;20280;-76
2022/11/25 09:09:31;;;;;;;6.47;3.30;;;11.40;99.90;;;;;;5017735;28;20198;-76
2022/11/25 09:11:57;;;;;;;5.57;2.65;;;11.50;99.90;;;;;;5032942;28;20166;-76
2022/11/25 09:14:23;;;;;;;5.07;2.70;;;11.50;99.90;;;;;;5031638;28;20170;-76
2022/11/25 09:16:49;;;;;;;3.70;2.00;;;11.60;99.90;;;;;;5031042;28;20172;-76
2022/11/25 09:19:14;;;;;;;5.23;2.40;;;11.60;99.90;;;;;;5032796;28;20178;-76
2022/11/25 09:21:42;;;;;;;5.60;2.50;;;11.70;99.90;;;;;;5038559;28;20458;-76
2022/11/25 09:24:08;;;;;;;8.00;1.95;;;11.70;99.90;;;;;;5036555;28;20169;-76
2022/11/25 09:26:36;;;;;;;4.57;1.98;;;11.70;99.90;;;;;;5038435;28;20177;-76
2022/11/25 09:29:02;;;;;;;6.63;2.03;;;11.80;99.90;;;;;;5035832;28;20201;-76
2022/11/25 09:31:27;;;;;;;4.97;1.98;;;11.80;99.90;;;;;;5015619;28;20656;-75
2022/11/25 09:33:54;;;;;;;9.23;2.13;;;11.90;99.90;;;;;;5033355;28;20173;-76
2022/11/25 09:36:22;;;;;;;3.83;2.20;;;11.90;99.90;;;;;;5031518;28;20166;-75
2022/11/25 09:38:48;;;;;;;3.20;1.85;;;12.00;99.90;;;;;;5032870;28;20194;-75
2022/11/25 09:47:32;;;;;;;6.32;2.15;;;12.10;99.90;;;;;;5034416;28;20636;-76
2022/11/25 09:50:29;;;;;;;3.60;1.73;;;12.10;99.90;;;;;;5012173;28;20170;-76
2022/11/25 09:53:13;;;;;;;6.57;1.83;;;12.20;99.90;;;;;;5013642;28;20205;-75
2022/11/25 09:55:44;;;;;;;4.40;1.75;;;12.20;99.90;;;;;;5023916;28;20269;-77
2022/11/25 09:58:33;;;;;;;5.25;1.40;;;12.30;99.90;;;;;;5051069;28;20222;-76
2022/11/25 10:01:00;;;;;;;2.70;1.20;;;12.30;99.90;;;;;;5051204;28;20746;-76
2022/11/25 10:03:43;;;;;;;4.18;1.40;;;12.30;99.90;;;;;;5049268;28;20184;-76
2022/11/25 10:06:13;;;;;;;3.78;1.50;;;12.40;99.90;;;;;;5051113;28;20201;-75
2022/11/25 10:08:43;;;;;;;2.72;1.10;;;12.40;99.90;;;;;;5049199;28;20273;-76
2022/11/25 10:11:40;;;;;;;4.85;1.38;;;12.40;99.90;;;;;;5050762;28;20222;-75
2022/11/25 10:14:40;;;;;;;3.78;1.42;;;12.50;99.90;;;;;;5032260;28;20261;-76
2022/11/25 10:17:09;;;;;;;3.83;1.35;;;12.50;99.90;;;;;;5050777;28;20231;-76
2022/11/25 10:19:47;;;;;;;4.47;1.45;;;12.60;99.90;;;;;;5049657;28;20260;-76
2022/11/25 10:22:33;;;;;;;4.78;1.15;;;12.60;99.90;;;;;;5048698;28;20178;-78
2022/11/25 10:25:15;;;;;;;4.75;1.63;;;12.70;99.90;;;;;;5056360;28;20189;-75
2022/11/25 10:28:09;;;;;;;4.40;1.27;;;12.70;99.90;;;;;;5051327;28;20769;-75
2022/11/25 10:30:43;;;;;;;3.13;1.20;;;12.80;99.90;;;;;;5050281;28;20173;-75
2022/11/25 10:33:31;;;;;;;5.78;1.40;;;12.80;99.90;;;;;;5050681;28;20161;-74
2022/11/25 10:36:05;;;;;;;4.60;1.20;;;12.90;99.90;;;;;;5049460;28;20165;-75
2022/11/25 10:38:57;;;;;;;3.78;1.65;;;12.90;99.90;;;;;;5050892;28;20196;-76
2022/11/25 10:41:27;;;;;;;3.75;1.30;;;13.00;99.90;;;;;;5051012;28;20169;-76
2022/11/25 10:43:53;;;;;;;5.07;1.20;;;13.00;99.90;;;;;;5051453;28;20177;-75
2022/11/25 10:46:52;;;;;;;7.07;1.40;;;13.10;99.90;;;;;;5050182;28;20256;-76
2022/11/25 10:49:34;;;;;;;4.93;1.20;;;13.10;99.90;;;;;;5049691;28;20714;-75
2022/11/25 10:52:01;;;;;;;5.57;1.13;;;13.20;99.90;;;;;;5048142;28;21143;-75
2022/11/25 10:54:28;;;;;;;5.13;1.13;;;13.40;99.90;;;;;;5048541;28;20533;-76
2022/11/25 10:57:15;;;;;;;6.90;1.80;;;13.50;99.90;;;;;;5049880;28;20968;-77
2022/11/25 10:59:52;;;;;;;2.67;1.20;;;13.70;99.90;;;;;;5048586;28;20560;-76
2022/11/25 11:02:38;;;;;;;5.73;1.20;;;13.80;99.90;;;;;;5052966;28;20582;-77
2022/11/25 11:05:07;;;;;;;6.60;1.92;;;13.90;99.90;;;;;;5049766;28;20571;-77
2022/11/25 11:07:36;;;;;;;4.50;1.63;;;14.10;99.90;;;;;;5048281;28;20301;-77
2022/11/25 11:10:19;;;;;;;5.33;1.67;;;14.20;99.90;;;;;;5047925;28;20666;-77
2022/11/25 11:12:59;;;;;;;4.77;1.37;;;14.20;99.90;;;;;;5047464;28;20572;-76
2022/11/25 11:15:27;;;;;;;9.50;1.63;;;14.30;99.90;;;;;;5049456;28;20575;-76
2022/11/25 11:17:54;;;;;;;5.30;1.33;;;14.30;99.90;;;;;;5049860;28;20698;-76
2022/11/25 11:20:24;;;;;;;7.07;1.63;;;14.40;99.90;;;;;;5049428;28;20968;-75
2022/11/25 11:23:09;;;;;;;9.57;1.73;;;14.30;99.90;;;;;;5048775;28;20637;-75
2022/11/25 11:25:58;;;;;;;8.60;1.80;;;14.40;99.90;;;;;;5047795;28;20570;-75
2022/11/25 11:28:25;;;;;;;4.87;1.30;;;14.50;99.90;;;;;;5049358;28;20627;-76
2022/11/25 11:31:14;;;;;;;5.00;1.23;;;14.60;99.90;;;;;;5049213;28;20556;-75
2022/11/25 11:33:43;;;;;;;9.83;1.47;;;14.60;99.90;;;;;;5047389;28;21332;-75
2022/11/25 11:36:45;;;;;;;13.10;1.37;;;14.70;99.90;;;;;;5031298;28;20568;-76
2022/11/25 11:39:35;;;;;;;5.53;1.60;;;14.70;99.90;;;;;;5052126;28;20554;-75
2022/11/25 11:42:30;;;;;;;6.83;2.13;;;14.80;99.90;;;;;;5030572;28;20583;-75
2022/11/25 11:45:11;;;;;;;12.07;2.33;;;15.00;99.90;;;;;;5049764;28;20568;-74
2022/11/25 11:48:10;;;;;;;6.20;2.10;;;15.10;99.90;;;;;;5049051;28;21073;-75
2022/11/25 11:50:50;;;;;;;12.80;2.87;;;15.10;99.90;;;;;;5049418;28;21107;-75
2022/11/25 11:53:21;;;;;;;5.93;1.90;;;15.20;99.90;;;;;;5047881;28;20567;-75
2022/11/25 11:55:55;;;;;;;8.67;2.83;;;15.20;99.90;;;;;;5049576;28;20642;-75
2022/11/25 11:58:45;;;;;;;13.40;3.50;;;15.20;99.90;;;;;;5049160;28;20654;-75
2022/11/25 12:01:36;;;;;;;9.57;2.67;;;15.20;99.90;;;;;;5048161;28;20599;-74
2022/11/25 12:04:17;;;;;;;13.53;3.97;;;15.20;99.90;;;;;;5049390;28;20634;-75
2022/11/25 12:06:56;;;;;;;12.10;4.17;;;15.20;99.90;;;;;;5015222;28;20571;-75
2022/11/25 12:09:25;;;;;;;10.87;5.47;;;15.30;99.90;;;;;;5031254;28;20989;-75
2022/11/25 12:11:58;;;;;;;11.07;4.30;;;15.30;99.90;;;;;;5047953;28;20955;-76
2022/11/25 12:14:36;;;;;;;8.60;4.10;;;15.30;99.90;;;;;;5049164;28;20602;-76
2022/11/25 12:17:08;;;;;;;8.13;2.40;;;15.20;99.90;;;;;;5053757;28;20603;-75
2022/11/25 12:19:52;;;;;;;11.33;2.63;;;15.20;99.90;;;;;;5031700;28;20717;-76
2022/11/25 12:22:41;;;;;;;10.73;3.50;;;15.20;99.90;;;;;;5049489;28;20574;-75
2022/11/25 12:25:18;;;;;;;10.30;3.37;;;15.20;99.90;;;;;;5047950;28;20630;-76
2022/11/25 12:27:51;;;;;;;10.87;2.43;;;15.30;99.90;;;;;;5047954;28;20631;-76
2022/11/25 12:30:19;;;;;;;8.17;1.87;;;15.30;99.90;;;;;;5047899;28;20556;-75
2022/11/25 12:33:13;;;;;;;7.33;2.40;;;15.40;99.90;;;;;;5049117;28;20621;-76
2022/11/25 12:35:44;;;;;;;7.00;3.40;;;15.40;99.90;;;;;;5048056;28;20564;-76
2022/11/25 12:38:32;;;;;;;6.30;2.47;;;15.60;99.90;;;;;;5047805;28;20609;-76
2022/11/25 12:41:26;;;;;;;6.80;2.27;;;15.60;99.90;;;;;;5047758;28;20667;-76
2022/11/25 12:44:22;;;;;;;8.50;2.77;;;15.60;99.90;;;;;;5048721;28;20632;-76
2022/11/25 12:46:55;;;;;;;7.77;3.20;;;15.80;99.90;;;;;;5051713;28;20567;-75
2022/11/25 12:49:45;;;;;;;10.00;2.90;;;15.80;99.90;;;;;;5052266;28;20619;-74
2022/11/25 12:52:18;;;;;;;9.77;2.73;;;15.90;99.90;;;;;;5052290;28;20571;-76
2022/11/25 12:54:49;;;;;;;6.97;1.90;;;15.90;99.90;;;;;;5058605;28;20566;-76
2022/11/25 12:57:48;;;;;;;8.50;2.10;;;15.90;99.90;;;;;;5053085;28;20588;-75
2022/11/25 13:00:30;;;;;;;8.20;1.90;;;15.90;99.90;;;;;;5052864;28;20602;-76
2022/11/25 13:03:33;;;;;;;7.30;3.10;;;15.90;99.90;;;;;;5051526;28;20563;-76
2022/11/25 13:06:37;;;;;;;14.27;6.57;;;15.80;99.90;;;;;;5051117;28;21232;-76
2022/11/25 13:09:09;;;;;;;11.73;5.70;;;15.80;99.90;;;;;;5052090;28;20725;-74
2022/11/25 13:11:54;;;;;;;11.20;4.90;;;15.60;99.90;;;;;;5050524;28;20571;-74
2022/11/25 13:14:31;;;;;;;8.90;4.00;;;15.50;99.90;;;;;;5051800;28;20555;-74
2022/11/25 13:16:58;;;;;;;6.07;2.17;;;15.40;99.90;;;;;;5050325;28;20572;-74
2022/11/25 13:19:24;;;;;;;7.03;2.37;;;15.20;99.90;;;;;;5051974;28;20563;-76